createdAt,value
2019-05-25T00:01:14.091Z,53.60
2019-05-25T00:03:43.887Z,53.70
2019-05-25T00:06:13.734Z,54.10
2019-05-25T00:08:43.595Z,54.50
2019-05-25T00:11:13.381Z,54.40
2019-05-25T00:13:43.185Z,54.50
2019-05-25T00:16:13.035Z,54.70
2019-05-25T00:18:42.818Z,55.00
2019-05-25T00:21:14.240Z,55.00
2019-05-25T00:23:44.251Z,55.70
2019-05-25T00:26:14.042Z,55.50
2019-05-25T00:28:43.821Z,55.70
2019-05-25T00:31:13.619Z,55.90
2019-05-25T00:33:43.467Z,56.10
2019-05-25T00:36:13.254Z,56.40
2019-05-25T00:38:43.040Z,56.80
2019-05-25T00:41:12.842Z,56.70
2019-05-25T00:43:43.610Z,56.80
2019-05-25T00:46:13.445Z,57.00
2019-05-25T00:48:43.218Z,57.50
2019-05-25T00:51:13.022Z,57.60
2019-05-25T00:53:42.794Z,57.60
2019-05-25T00:56:12.652Z,57.90
2019-05-25T00:58:42.447Z,58.20
2019-05-25T01:01:12.250Z,58.40
2019-05-25T01:03:42.041Z,58.50
2019-05-25T01:06:11.826Z,58.80
2019-05-25T01:08:41.612Z,59.20
2019-05-25T01:11:11.467Z,59.50
2019-05-25T01:13:41.256Z,59.60
2019-05-25T01:16:11.036Z,59.50
2019-05-25T01:18:40.831Z,59.60
2019-05-25T01:21:10.595Z,59.90
2019-05-25T01:23:40.398Z,60.10
2019-05-25T01:26:10.175Z,60.20
2019-05-25T01:28:39.971Z,60.70
2019-05-25T01:31:09.752Z,60.80
2019-05-25T01:33:39.532Z,61.00
2019-05-25T01:36:09.325Z,61.50
2019-05-25T01:38:39.107Z,61.90
2019-05-25T01:41:08.887Z,61.80
2019-05-25T01:43:38.664Z,62.20
2019-05-25T01:46:08.457Z,62.50
2019-05-25T01:48:38.233Z,62.90
2019-05-25T01:51:08.035Z,63.10
2019-05-25T01:53:37.815Z,63.20
2019-05-25T01:56:07.615Z,63.60
2019-05-25T01:58:37.399Z,63.80
2019-05-25T02:01:07.203Z,63.90
2019-05-25T02:03:36.971Z,64.10
2019-05-25T02:06:06.771Z,64.30
2019-05-25T02:08:36.555Z,64.50
2019-05-25T02:11:06.407Z,64.90
2019-05-25T02:13:36.192Z,65.00
2019-05-25T02:16:05.993Z,65.10
2019-05-25T02:18:35.830Z,65.20
2019-05-25T02:21:06.655Z,65.50
2019-05-25T02:23:36.451Z,65.70
2019-05-25T02:26:06.219Z,65.90
2019-05-25T02:28:36.015Z,65.80
2019-05-25T02:31:05.775Z,66.00
2019-05-25T02:33:35.599Z,66.30
2019-05-25T02:36:05.427Z,66.80
2019-05-25T02:38:36.183Z,66.70
2019-05-25T02:41:06.035Z,67.10
2019-05-25T02:43:35.903Z,67.10
2019-05-25T02:46:05.671Z,67.30
2019-05-25T02:48:35.463Z,67.60
2019-05-25T02:51:05.319Z,67.80
2019-05-25T02:53:35.087Z,68.00
2019-05-25T02:56:04.952Z,68.20
2019-05-25T02:58:34.737Z,68.50
2019-05-25T03:01:04.863Z,69.00
2019-05-25T03:03:34.639Z,69.20
2019-05-25T03:06:06.355Z,69.50
2019-05-25T03:08:38.154Z,69.60
2019-05-25T03:11:08.392Z,69.90
2019-05-25T03:13:38.635Z,70.00
2019-05-25T03:16:09.500Z,70.20
2019-05-25T03:18:39.282Z,71.30
2019-05-25T03:21:09.080Z,71.00
2019-05-25T03:23:38.864Z,71.10
2019-05-25T03:26:08.672Z,71.10
2019-05-25T03:28:38.448Z,71.50
2019-05-25T03:31:08.260Z,71.70
2019-05-25T03:33:38.028Z,72.00
2019-05-25T03:36:07.812Z,72.30
2019-05-25T03:38:37.591Z,72.60
2019-05-25T03:41:07.372Z,72.70
2019-05-25T03:43:37.193Z,73.00
2019-05-25T03:46:06.949Z,73.30
2019-05-25T03:48:36.752Z,73.60
2019-05-25T03:51:06.532Z,73.90
2019-05-25T03:53:36.307Z,74.10
2019-05-25T03:56:06.614Z,74.50
2019-05-25T03:58:36.553Z,75.00
2019-05-25T04:01:06.321Z,75.40
2019-05-25T04:03:36.111Z,75.70
2019-05-25T04:06:07.037Z,76.00
2019-05-25T04:08:36.839Z,76.30
2019-05-25T04:11:06.618Z,76.60
2019-05-25T04:13:36.407Z,76.90
2019-05-25T04:16:06.279Z,77.40
2019-05-25T04:18:36.058Z,77.60
2019-05-25T04:21:05.845Z,78.10
2019-05-25T04:23:35.623Z,78.40
2019-05-25T04:26:19.578Z,78.80
2019-05-25T04:28:36.893Z,78.90
2019-05-25T04:31:07.753Z,79.10
2019-05-25T04:33:37.529Z,79.40
2019-05-25T04:36:07.319Z,79.80
2019-05-25T04:38:37.091Z,80.20
2019-05-25T04:41:06.898Z,80.50
2019-05-25T04:43:36.679Z,80.70
2019-05-25T04:46:06.623Z,81.00
2019-05-25T04:48:36.415Z,81.60
2019-05-25T04:51:06.259Z,81.90
2019-05-25T04:53:36.059Z,82.20
2019-05-25T04:56:05.847Z,82.20
2019-05-25T04:58:35.636Z,82.60
2019-05-25T05:01:05.411Z,82.80
2019-05-25T05:03:38.159Z,83.10
2019-05-25T05:06:07.939Z,83.40
2019-05-25T05:08:37.736Z,83.60
2019-05-25T05:11:07.520Z,83.80
2019-05-25T05:13:37.321Z,83.90
2019-05-25T05:16:07.103Z,83.90
2019-05-25T05:18:36.908Z,84.10
2019-05-25T05:21:06.687Z,84.10
2019-05-25T05:23:36.481Z,84.20
2019-05-25T05:26:06.267Z,84.20
2019-05-25T05:28:36.863Z,84.20
2019-05-25T05:31:20.990Z,84.10
2019-05-25T05:33:38.291Z,83.50
2019-05-25T05:36:08.140Z,83.00
2019-05-25T05:38:38.671Z,82.70
2019-05-25T05:41:08.798Z,82.30
2019-05-25T05:43:39.432Z,81.90
2019-05-25T05:46:11.616Z,82.10
2019-05-25T05:48:43.215Z,82.60
2019-05-25T05:51:15.907Z,82.90
2019-05-25T05:53:46.171Z,83.40
2019-05-25T05:56:15.953Z,83.70
2019-05-25T05:58:45.743Z,84.20
2019-05-25T06:01:15.541Z,84.30
2019-05-25T06:03:45.327Z,84.20
2019-05-25T06:06:15.128Z,84.40
2019-05-25T06:08:45.292Z,84.30
2019-05-25T06:11:15.166Z,84.60
2019-05-25T06:13:44.962Z,84.50
2019-05-25T06:16:14.759Z,84.70
2019-05-25T06:18:44.551Z,84.80
2019-05-25T06:21:14.332Z,84.90
2019-05-25T06:23:44.139Z,84.40
2019-05-25T06:26:13.928Z,84.50
2019-05-25T06:28:43.727Z,84.70
2019-05-25T06:31:13.515Z,84.80
2019-05-25T06:33:43.323Z,84.60
2019-05-25T06:36:13.144Z,84.70
2019-05-25T06:38:42.973Z,85.70
2019-05-25T06:41:12.773Z,85.70
2019-05-25T06:43:42.624Z,84.60
2019-05-25T06:46:12.424Z,84.60
2019-05-25T06:48:42.208Z,83.80
2019-05-25T06:51:12.002Z,83.20
2019-05-25T06:53:41.792Z,83.10
2019-05-25T06:56:11.587Z,83.10
2019-05-25T06:58:41.372Z,83.00
2019-05-25T07:01:11.200Z,83.10
2019-05-25T07:03:41.031Z,83.10
2019-05-25T07:06:10.826Z,82.50
2019-05-25T07:08:40.612Z,82.70
2019-05-25T07:11:10.412Z,83.40
2019-05-25T07:13:40.203Z,83.30
2019-05-25T07:16:10.008Z,82.60
2019-05-25T07:18:39.800Z,82.50
2019-05-25T07:21:10.675Z,82.00
2019-05-25T07:23:40.460Z,81.30
2019-05-25T07:26:10.328Z,81.20
2019-05-25T07:28:40.520Z,81.20
2019-05-25T07:31:10.312Z,81.40
2019-05-25T07:33:40.113Z,81.40
2019-05-25T07:36:09.912Z,81.10
2019-05-25T07:38:39.708Z,80.50
2019-05-25T07:41:09.545Z,80.60
2019-05-25T07:43:39.356Z,80.30
2019-05-25T07:46:09.147Z,79.90
2019-05-25T07:48:38.946Z,79.50
2019-05-25T07:51:08.740Z,79.80
2019-05-25T07:53:38.548Z,80.20
2019-05-25T07:56:08.336Z,79.40
2019-05-25T07:58:38.138Z,79.30
2019-05-25T08:01:07.924Z,78.90
2019-05-25T08:03:39.816Z,78.40
2019-05-25T08:06:09.231Z,78.00
2019-05-25T08:08:39.030Z,78.50
2019-05-25T08:11:08.818Z,78.20
2019-05-25T08:13:38.656Z,78.00
2019-05-25T08:16:08.443Z,78.30
2019-05-25T08:18:38.274Z,78.70
2019-05-25T08:21:08.062Z,78.70
2019-05-25T08:23:37.872Z,78.50
2019-05-25T08:26:07.668Z,78.10
2019-05-25T08:28:37.482Z,78.00
2019-05-25T08:31:07.270Z,77.80
2019-05-25T08:33:37.714Z,78.10
2019-05-25T08:36:07.500Z,78.90
2019-05-25T08:38:37.283Z,78.20
2019-05-25T08:41:07.086Z,77.10
2019-05-25T08:43:36.868Z,77.10
2019-05-25T08:46:06.655Z,77.30
2019-05-25T08:48:36.436Z,77.40
2019-05-25T08:51:06.231Z,77.60
2019-05-25T08:53:41.622Z,76.70
2019-05-25T08:56:07.533Z,76.10
2019-05-25T08:58:47.932Z,76.00
2019-05-25T09:01:08.826Z,76.50
2019-05-25T09:03:38.614Z,76.00
2019-05-25T09:06:08.406Z,76.00
2019-05-25T09:08:38.210Z,76.30
2019-05-25T09:11:08.012Z,76.00
2019-05-25T09:13:37.800Z,76.40
2019-05-25T09:16:07.610Z,75.90
2019-05-25T09:18:37.400Z,76.20
2019-05-25T09:21:07.204Z,75.40
2019-05-25T09:23:36.992Z,75.20
2019-05-25T09:26:06.898Z,75.60
2019-05-25T09:28:36.690Z,76.10
2019-05-25T09:31:06.487Z,75.30
2019-05-25T09:33:36.280Z,76.30
2019-05-25T09:36:06.068Z,75.60
2019-05-25T09:38:35.884Z,75.10
2019-05-25T09:41:05.734Z,74.80
2019-05-25T09:43:35.529Z,74.60
2019-05-25T09:46:05.401Z,73.80
2019-05-25T09:48:38.133Z,74.20
2019-05-25T09:51:15.508Z,73.30
2019-05-25T09:53:38.266Z,74.30
2019-05-25T09:56:08.053Z,73.60
2019-05-25T09:58:37.868Z,74.10
2019-05-25T10:01:07.658Z,74.30
2019-05-25T10:03:37.456Z,74.00
2019-05-25T10:06:12.564Z,74.40
2019-05-25T10:08:38.825Z,74.20
2019-05-25T10:11:08.607Z,74.40
2019-05-25T10:13:38.420Z,74.40
2019-05-25T10:16:08.230Z,74.70
2019-05-25T10:18:38.023Z,74.20
2019-05-25T10:21:07.817Z,72.80
2019-05-25T10:23:37.620Z,73.50
2019-05-25T10:26:07.430Z,73.30
2019-05-25T10:28:37.228Z,72.50
2019-05-25T10:31:07.034Z,72.70
2019-05-25T10:33:36.833Z,71.70
2019-05-25T10:36:06.640Z,72.10
2019-05-25T10:38:36.435Z,73.20
2019-05-25T10:41:06.337Z,72.20
2019-05-25T10:43:39.036Z,72.50
2019-05-25T10:46:08.852Z,72.50
2019-05-25T10:48:38.737Z,72.00
2019-05-25T10:51:08.548Z,73.00
2019-05-25T10:53:38.373Z,72.50
2019-05-25T10:56:08.163Z,72.10
2019-05-25T10:58:37.993Z,70.80
2019-05-25T11:01:07.800Z,71.30
2019-05-25T11:03:38.072Z,70.50
2019-05-25T11:06:07.940Z,70.80
2019-05-25T11:08:37.844Z,70.90
2019-05-25T11:11:07.706Z,70.70
2019-05-25T11:13:37.541Z,71.00
2019-05-25T11:16:07.328Z,73.00
2019-05-25T11:18:37.162Z,76.00
2019-05-25T11:21:06.927Z,74.60
2019-05-25T11:23:36.785Z,74.30
2019-05-25T11:26:06.612Z,71.50
2019-05-25T11:28:36.867Z,70.10
2019-05-25T11:31:06.674Z,71.10
2019-05-25T11:33:36.602Z,72.00
2019-05-25T11:36:06.459Z,72.70
2019-05-25T11:38:36.276Z,72.00
2019-05-25T11:41:06.068Z,69.30
2019-05-25T11:43:35.928Z,69.40
2019-05-25T11:46:05.900Z,69.10
2019-05-25T11:48:35.695Z,69.00
2019-05-25T11:51:05.505Z,67.50
2019-05-25T11:53:35.348Z,66.80
2019-05-25T11:56:05.254Z,68.80
2019-05-25T11:58:47.064Z,69.40
2019-05-25T12:01:06.637Z,71.00
2019-05-25T12:03:36.464Z,69.40
2019-05-25T12:06:06.281Z,69.00
2019-05-25T12:08:36.070Z,69.10
2019-05-25T12:11:05.897Z,68.00
2019-05-25T12:13:35.691Z,68.10
2019-05-25T12:16:05.499Z,66.20
2019-05-25T12:18:36.394Z,67.00
2019-05-25T12:21:06.203Z,67.60
2019-05-25T12:23:35.995Z,66.60
2019-05-25T12:26:05.813Z,64.90
2019-05-25T12:28:35.611Z,64.20
2019-05-25T12:31:05.419Z,65.60
2019-05-25T12:33:35.224Z,67.30
2019-05-25T12:36:06.250Z,66.00
2019-05-25T12:38:36.168Z,65.40
2019-05-25T12:41:06.023Z,64.80
2019-05-25T12:43:35.825Z,66.50
2019-05-25T12:46:05.627Z,63.80
2019-05-25T12:48:35.427Z,64.70
2019-05-25T12:51:05.276Z,67.40
2019-05-25T12:53:36.094Z,64.10
2019-05-25T12:56:05.908Z,63.20
2019-05-25T12:58:35.763Z,62.80
2019-05-25T13:01:05.653Z,64.10
2019-05-25T13:03:35.531Z,65.40
2019-05-25T13:06:05.595Z,65.10
2019-05-25T13:08:35.388Z,63.90
2019-05-25T13:11:08.342Z,62.00
2019-05-25T13:13:36.667Z,63.90
2019-05-25T13:16:06.502Z,63.90
2019-05-25T13:18:36.373Z,60.90
2019-05-25T13:21:06.177Z,60.40
2019-05-25T13:23:35.967Z,62.50
2019-05-25T13:26:05.817Z,63.40
2019-05-25T13:28:35.633Z,60.70
2019-05-25T13:31:11.658Z,60.00
2019-05-25T13:33:36.915Z,60.50
2019-05-25T13:36:06.710Z,58.50
2019-05-25T13:38:36.545Z,58.70
2019-05-25T13:41:06.389Z,60.00
2019-05-25T13:43:36.217Z,60.30
2019-05-25T13:46:05.995Z,59.90
2019-05-25T13:48:35.830Z,59.10
2019-05-25T13:51:05.694Z,57.70
2019-05-25T13:53:35.499Z,59.00
2019-05-25T13:56:05.280Z,58.60
2019-05-25T13:58:35.083Z,57.80
2019-05-25T14:01:04.936Z,57.90
2019-05-25T14:03:34.737Z,56.80
2019-05-25T14:06:04.587Z,56.10
2019-05-25T14:08:34.375Z,57.60
2019-05-25T14:11:05.331Z,56.70
2019-05-25T14:13:35.107Z,56.90
2019-05-25T14:16:07.481Z,55.50
2019-05-25T14:18:39.765Z,55.50
2019-05-25T14:21:09.543Z,56.30
2019-05-25T14:23:39.339Z,53.80
2019-05-25T14:26:09.123Z,54.50
2019-05-25T14:28:38.975Z,55.40
2019-05-25T14:31:08.805Z,56.20
2019-05-25T14:33:38.679Z,56.00
2019-05-25T14:36:08.629Z,55.30
2019-05-25T14:38:38.408Z,54.30
2019-05-25T14:41:08.212Z,54.80
2019-05-25T14:43:38.029Z,54.40
2019-05-25T14:46:07.907Z,55.00
2019-05-25T14:48:37.750Z,55.10
2019-05-25T14:51:09.170Z,53.80
2019-05-25T14:53:38.949Z,54.40
2019-05-25T14:56:08.870Z,51.70
2019-05-25T14:58:38.812Z,52.00
2019-05-25T15:01:09.166Z,54.20
2019-05-25T15:03:39.099Z,54.70
2019-05-25T15:06:12.179Z,54.70
2019-05-25T15:08:42.027Z,53.90
2019-05-25T15:11:11.832Z,53.60
2019-05-25T15:13:41.613Z,54.40
2019-05-25T15:16:11.409Z,53.80
2019-05-25T15:18:41.236Z,53.50
2019-05-25T15:21:11.097Z,52.40
2019-05-25T15:23:42.530Z,53.40
2019-05-25T15:26:12.407Z,52.30
2019-05-25T15:28:42.193Z,52.30
2019-05-25T15:31:11.992Z,51.00
2019-05-25T15:33:41.787Z,50.90
2019-05-25T15:36:11.584Z,50.50
2019-05-25T15:38:41.387Z,50.30
2019-05-25T15:41:11.176Z,51.00
2019-05-25T15:43:40.965Z,51.90
2019-05-25T15:46:10.743Z,49.90
2019-05-25T15:48:40.519Z,48.50
2019-05-25T15:51:10.298Z,48.40
2019-05-25T15:53:40.107Z,47.80
2019-05-25T15:56:09.879Z,47.50
2019-05-25T15:58:39.674Z,48.10
2019-05-25T16:01:09.456Z,49.30
2019-05-25T16:03:39.245Z,49.80
2019-05-25T16:06:09.037Z,50.20
2019-05-25T16:08:38.896Z,50.70
2019-05-25T16:11:08.686Z,52.20
2019-05-25T16:13:38.463Z,52.60
2019-05-25T16:16:08.267Z,52.80
2019-05-25T16:18:38.052Z,52.60
2019-05-25T16:21:07.873Z,53.40
2019-05-25T16:23:37.718Z,53.60
2019-05-25T16:26:07.524Z,55.10
2019-05-25T16:28:37.316Z,54.40
2019-05-25T16:31:07.111Z,55.00
2019-05-25T16:33:36.915Z,55.80
2019-05-25T16:36:06.710Z,55.50
2019-05-25T16:38:36.531Z,55.70
2019-05-25T16:41:07.510Z,55.80
2019-05-25T16:43:37.298Z,56.20
2019-05-25T16:46:07.126Z,56.20
2019-05-25T16:48:37.003Z,56.50
2019-05-25T16:51:06.792Z,57.10
2019-05-25T16:53:36.576Z,57.70
2019-05-25T16:56:06.372Z,57.70
2019-05-25T16:58:36.514Z,57.90
2019-05-25T17:01:06.389Z,58.50
2019-05-25T17:03:36.186Z,58.60
2019-05-25T17:06:05.995Z,58.50
2019-05-25T17:08:35.762Z,58.10
2019-05-25T17:11:06.637Z,58.30
2019-05-25T17:13:36.413Z,59.00
2019-05-25T17:16:06.220Z,59.70
2019-05-25T17:18:36.000Z,60.10
2019-05-25T17:21:05.809Z,60.00
2019-05-25T17:23:35.590Z,60.30
2019-05-25T17:26:05.472Z,60.70
2019-05-25T17:28:35.274Z,60.70
2019-05-25T17:31:05.148Z,60.30
2019-05-25T17:33:45.537Z,60.70
2019-05-25T17:36:06.436Z,61.00
2019-05-25T17:38:36.287Z,61.20
2019-05-25T17:41:06.099Z,60.90
2019-05-25T17:43:35.894Z,61.50
2019-05-25T17:46:05.755Z,61.90
2019-05-25T17:48:35.528Z,61.30
2019-05-25T17:51:05.316Z,61.70
2019-05-25T17:53:35.109Z,61.50
2019-05-25T17:56:05.032Z,61.80
2019-05-25T17:58:34.820Z,61.90
2019-05-25T18:01:05.052Z,62.00
2019-05-25T18:03:34.846Z,62.60
2019-05-25T18:06:05.000Z,63.30
2019-05-25T18:08:34.791Z,63.80
2019-05-25T18:11:04.742Z,63.80
2019-05-25T18:13:34.539Z,63.90
2019-05-25T18:16:05.304Z,64.50
2019-05-25T18:18:35.104Z,64.60
2019-05-25T18:21:05.151Z,65.00
2019-05-25T18:23:34.990Z,65.20
2019-05-25T18:26:05.041Z,65.70
2019-05-25T18:28:34.854Z,65.90
2019-05-25T18:31:04.707Z,65.70
2019-05-25T18:33:34.567Z,65.80
2019-05-25T18:36:04.369Z,66.00
2019-05-25T18:38:34.177Z,65.90
2019-05-25T18:41:04.021Z,66.00
2019-05-25T18:43:33.837Z,65.50
2019-05-25T18:46:04.480Z,65.80
2019-05-25T18:48:34.575Z,65.80
2019-05-25T18:51:04.730Z,66.10
2019-05-25T18:53:34.488Z,66.20
2019-05-25T18:56:04.349Z,66.70
2019-05-25T18:58:34.139Z,66.00
2019-05-25T19:01:04.020Z,66.40
2019-05-25T19:03:33.869Z,66.60
2019-05-25T19:06:03.736Z,66.70
2019-05-25T19:08:33.605Z,66.50
2019-05-25T19:11:03.387Z,66.70
2019-05-25T19:13:33.213Z,67.10
2019-05-25T19:16:03.062Z,67.60
2019-05-25T19:18:32.869Z,67.90
2019-05-25T19:21:02.646Z,67.30
2019-05-25T19:23:32.453Z,67.50
2019-05-25T19:26:02.245Z,67.50
2019-05-25T19:28:32.054Z,67.50
2019-05-25T19:31:01.836Z,67.40
2019-05-25T19:33:31.634Z,67.40
2019-05-25T19:36:01.420Z,67.60
2019-05-25T19:38:31.210Z,67.80
2019-05-25T19:41:01.003Z,67.70
2019-05-25T19:43:30.806Z,67.80
2019-05-25T19:46:00.657Z,68.00
2019-05-25T19:48:30.435Z,68.20
2019-05-25T19:51:00.245Z,68.00
2019-05-25T19:53:30.022Z,68.20
2019-05-25T19:55:59.816Z,68.40
2019-05-25T19:58:29.586Z,68.50
2019-05-25T20:01:00.472Z,68.40
2019-05-25T20:03:30.262Z,68.60
2019-05-25T20:06:00.064Z,68.70
2019-05-25T20:08:31.029Z,68.90
2019-05-25T20:11:00.839Z,69.10
2019-05-25T20:13:30.619Z,69.40
2019-05-25T20:16:00.437Z,69.30
2019-05-25T20:18:30.233Z,69.20
2019-05-25T20:21:00.027Z,69.40
2019-05-25T20:23:29.897Z,69.70
2019-05-25T20:25:59.671Z,69.80
2019-05-25T20:28:29.475Z,69.90
2019-05-25T20:30:59.277Z,70.00
2019-05-25T20:33:29.091Z,70.70
2019-05-25T20:35:59.964Z,70.30
2019-05-25T20:38:29.782Z,70.30
2019-05-25T20:40:59.564Z,70.50
2019-05-25T20:43:29.348Z,71.10
2019-05-25T20:45:59.153Z,71.60
2019-05-25T20:48:28.933Z,71.30
2019-05-25T20:50:58.733Z,72.20
2019-05-25T20:53:28.511Z,72.50
2019-05-25T20:55:59.437Z,72.70
2019-05-25T20:58:29.219Z,72.70
2019-05-25T21:00:59.022Z,73.00
2019-05-25T21:03:28.806Z,73.00
2019-05-25T21:05:58.604Z,73.10
2019-05-25T21:08:28.389Z,73.40
2019-05-25T21:10:58.190Z,73.70
2019-05-25T21:13:28.960Z,73.70
2019-05-25T21:15:58.988Z,74.10
2019-05-25T21:18:28.922Z,74.10
2019-05-25T21:20:58.736Z,74.00
2019-05-25T21:23:28.513Z,74.30
2019-05-25T21:25:58.305Z,74.10
2019-05-25T21:28:28.123Z,74.10
2019-05-25T21:30:57.911Z,74.20
2019-05-25T21:33:27.775Z,74.20
2019-05-25T21:36:07.840Z,74.20
2019-05-25T21:38:29.064Z,74.40
2019-05-25T21:40:58.852Z,74.50
2019-05-25T21:43:28.659Z,74.50
2019-05-25T21:45:58.434Z,74.60
2019-05-25T21:48:28.310Z,74.80
2019-05-25T21:50:58.109Z,74.90
2019-05-25T21:53:27.890Z,75.20
2019-05-25T21:55:57.702Z,75.40
2019-05-25T21:58:28.556Z,75.50
2019-05-25T22:00:58.426Z,75.40
2019-05-25T22:03:29.815Z,75.60
2019-05-25T22:05:59.594Z,75.50
2019-05-25T22:08:29.400Z,75.80
2019-05-25T22:10:59.264Z,75.90
2019-05-25T22:13:29.177Z,76.00
2019-05-25T22:15:59.012Z,76.20
2019-05-25T22:18:28.795Z,76.30
2019-05-25T22:20:58.597Z,76.40
2019-05-25T22:23:28.388Z,76.50
2019-05-25T22:25:58.270Z,76.70
2019-05-25T22:28:43.495Z,77.00
2019-05-25T22:30:59.580Z,77.00
2019-05-25T22:33:29.371Z,77.10
2019-05-25T22:35:59.204Z,77.10
2019-05-25T22:38:28.985Z,77.20
2019-05-25T22:40:58.894Z,77.10
2019-05-25T22:43:28.723Z,77.20
2019-05-25T22:45:58.519Z,77.20
2019-05-25T22:48:28.327Z,77.30
2019-05-25T22:50:58.125Z,77.40
2019-05-25T22:53:29.083Z,77.40
2019-05-25T22:55:59.032Z,77.60
2019-05-25T22:58:28.825Z,77.70
2019-05-25T23:00:58.627Z,77.70
2019-05-25T23:03:28.436Z,78.00
2019-05-25T23:05:58.310Z,78.40
2019-05-25T23:08:28.140Z,78.50
2019-05-25T23:10:58.007Z,78.50
2019-05-25T23:13:27.789Z,78.70
2019-05-25T23:15:57.579Z,78.80
2019-05-25T23:18:27.381Z,78.80
2019-05-25T23:20:57.172Z,78.90
2019-05-25T23:23:27.125Z,79.10
2019-05-25T23:25:56.909Z,79.30
2019-05-25T23:28:27.780Z,79.40
2019-05-25T23:30:57.572Z,79.70
2019-05-25T23:33:27.362Z,79.70
2019-05-25T23:35:57.159Z,79.80
2019-05-25T23:38:26.952Z,80.00
2019-05-25T23:40:56.788Z,80.00
2019-05-25T23:43:26.644Z,80.00
2019-05-25T23:45:57.511Z,80.10
2019-05-25T23:48:27.290Z,80.40
2019-05-25T23:50:57.090Z,80.60
2019-05-25T23:53:26.884Z,80.60
2019-05-25T23:55:56.699Z,80.80
2019-05-25T23:58:26.538Z,81.40
